Weather observations for the past three days for
Morrisville-Stowe State Airport
Imperial (Metric)
Date Time (edt) Wind (mph) Vis. (mi.) Weather Sky Cond. Temperature (ºF) Relative Humidity Wind Chill (°F) Heat Index (°F) Pressure Precipitation (in)
Air Dwpt 6 hour altimeter (in) sea level (mb) 1 hr 3 hr 6 hr
Max. Min.
05 00:54 S 3 7.00 Mostly Cloudy FEW021 SCT047 BKN065 59 59 100% 29.86 1011.0
04 23:54 Calm 10.00 A Few Clouds FEW036 FEW070 59 59 100% 29.86 1010.9
04 22:54 Calm 10.00 Overcast BKN055 OVC100 62.1 61 96% 29.87 1011.2
04 21:54 S 3 10.00 Overcast BKN070 OVC100 62.1 61 96% 29.87 1011.6
04 20:54 Calm 10.00 Overcast FEW050 FEW065 OVC100 62.1 62.1 100% 29.88 1011.6
04 19:54 S 6 10.00 Overcast FEW050 SCT060 OVC070 63 62.1 73.9 63 97% 29.86 1011.0 0.01
04 18:54 Calm 10.00 Overcast FEW037 BKN070 OVC100 66.9 61 81% 29.87 1011.3
04 17:54 Calm 10.00 Light Rain BKN060 OVC075 66 63 90% 29.87 1011.3 0.01
04 16:54 N 7 10.00 Overcast FEW042 BKN080 OVC095 70 61 73% 29.86 1011.0
04 15:54 NW 8 10.00 Overcast SCT038 OVC080 71.1 59 66% 29.86 1011.1
04 14:54 N 5 10.00 Mostly Cloudy BKN090 72 57.9 61% 29.86 1011.1
04 13:54 Calm 10.00 Mostly Cloudy BKN040 BKN085 73 57.9 75 62.1 59% 29.87 1011.3
04 12:54 Vrbl 6 10.00 Mostly Cloudy SCT040 BKN048 72 55.9 57% 29.87 1011.2
04 11:54 N 8 10.00 Overcast SCT042 OVC055 73 57 57% 29.88 1011.6
04 10:54 N 10 G 18 10.00 Partly Cloudy SCT037 72 57.9 61% 29.88 1011.7
04 09:54 Calm 10.00 Mostly Cloudy SCT024 BKN035 66.9 64 91% 29.88 1011.7
04 08:54 Calm 10.00 Overcast BKN003 OVC026 64 64 100% 29.88 1011.9
04 07:54 Calm 0.75 Fog/Mist BKN002 OVC024 62.1 62.1 62.1 60.1 100% 29.89 1012.0
04 06:54 Calm 0.25 Fog VV002 61 61 100% 29.87 1011.3
04 05:54 Calm 0.50 Fog BKN002 OVC025 60.1 60.1 100% 29.86 1011.0
04 04:54 Calm 6.00 Fog/Mist SCT002 OVC026 61 61 100% 29.85 1010.7
04 03:54 Calm 10.00 Overcast SCT002 BKN028 OVC060 62.1 61 96% 29.85 1010.7
04 02:54 NW 3 7.00 Overcast BKN002 BKN029 OVC039 63 63 100% 29.85 1010.7
04 01:54 Calm 4.00 Fog/Mist BKN002 OVC032 63 63 66.9 63 100% 29.87 1011.2 0.02
04 00:54 Calm 7.00 Overcast FEW001 BKN049 OVC100 64 64 100% 29.87 1011.3
03 23:54 Calm 8.00 Overcast FEW002 SCT047 OVC090 64 64 100% 29.88 1011.7 0.02
03 22:54 Calm 10.00 Mostly Cloudy FEW047 SCT060 BKN085 64 64 100% 29.88 1011.8
03 21:54 S 5 10.00 Overcast FEW050 BKN075 OVC090 66 64.9 96% 29.89 1012.1
03 20:54 S 5 10.00 Overcast FEW042 OVC050 66 66 100% 29.89 1012.1
03 19:54 Calm 10.00 Overcast FEW047 SCT055 OVC070 66.9 66 81 66 97% 29.86 1011.1 0.01
03 18:54 S 3 10.00 A Few Clouds FEW047 70 66 87% 29.85 1010.7
03 17:54 SW 3 10.00 Overcast FEW050 OVC085 72 69.1 91% 29.86 1011.1 0.01
03 16:54 NE 8 10.00 Mostly Cloudy FEW047 BKN090 75 64.9 71% 77 29.85 1010.8
03 15:54 SW 5 10.00 Partly Cloudy SCT041 79 64 60% 81 29.85 1010.4
03 13:54 SW 10 G 17 10.00 Fair CLR 78.1 64.9 78.1 62.1 64% 80 29.87 1011.3
03 12:54 S 9 10.00 Partly Cloudy SCT050 75.9 66 72% 77 29.88 1011.5
03 11:54 SW 9 10.00 Mostly Cloudy BKN070 75 64.9 71% 77 29.89 1012.0
03 10:54 S 7 10.00 Mostly Cloudy FEW015 SCT047 BKN080 70 64.9 84% 29.92 1013.1
03 09:54 SE 6 10.00 Overcast SCT011 BKN022 OVC055 64.9 63 93% 29.93 1013.3
03 07:54 SE 7 10.00 Overcast SCT022 BKN032 OVC045 62.1 61 62.1 60.1 96% 29.94 1013.7 0.1
03 06:54 Calm 10.00 Overcast OVC042 61 60.1 97% 29.93 1013.6
03 05:54 S 6 10.00 Overcast SCT021 OVC032 60.1 60.1 100% 29.92 1013.3
03 04:54 SE 7 10.00 Overcast BKN024 OVC047 60.1 59 96% 29.92 1013.3 0.01 0.1
03 03:54 S 5 10.00 Overcast BKN024 OVC028 60.1 60.1 100% 29.94 1013.8 0.02
03 02:54 S 7 5.00 Rain Fog/Mist OVC026 60.1 59 96% 29.95 1014.1 0.07
03 01:54 S 3 5.00 Rain Fog/Mist OVC029 61 60.1 66.9 61 97% 29.97 1014.9 0.12 0.37
03 00:54 S 6 6.00 Rain Fog/Mist OVC026 61 61 100% 29.98 1015.2 0.22
02 23:54 S 6 10.00 Light Rain OVC028 63 60.1 90% 29.99 1015.3 0.02
02 22:54 SE 12 G 22 10.00 Light Rain OVC026 64 60.1 87% 30.01 1016.0 0.01 0.01
02 21:54 S 9 G 23 10.00 Overcast OVC020 66 59 78% 30.02 1016.4
02 20:54 S 10 G 16 10.00 Overcast OVC026 66 59 78% 30.02 1016.6
02 19:54 S 13 G 24 10.00 Overcast OVC026 66 59 70 66 78% 30.01 1016.3
02 18:54 S 12 G 28 10.00 Overcast OVC028 66.9 57.9 73% 30.04 1017.0
02 17:54 S 10 10.00 Overcast OVC027 66.9 59 76% 30.07 1018.1
02 16:54 S 8 G 18 10.00 Overcast OVC029 66.9 59 76% 30.08 1018.4
02 15:54 S 7 10.00 Overcast OVC030 69.1 59 70% 30.09 1018.7
02 14:54 S 12 G 22 10.00 Partly Cloudy SCT033 70 57.9 66% 30.1 1019.0
02 13:54 S 12 G 18 10.00 Overcast OVC033 70 57.9 72 64 66% 30.11 1019.5
02 12:54 S 8 G 20 10.00 Overcast OVC030 69.1 57.9 68% 30.12 1019.9
02 11:54 S 12 G 20 10.00 Mostly Cloudy BKN031 69.1 57.9 68% 30.13 1020.3
02 10:54 S 7 10.00 Overcast BKN027 OVC032 66.9 57.9 73% 30.15 1021.0
02 09:54 S 7 10.00 Overcast FEW028 OVC034 66 57.9 75% 30.14 1020.7
02 07:54 S 5 10.00 Overcast OVC037 64 57.9 64.9 63 81% 30.14 1020.6
02 06:54 SW 3 10.00 Overcast OVC038 64 57.9 81% 30.14 1020.6
02 05:54 SW 6 10.00 Overcast OVC034 64 57 78% 30.13 1020.1
02 04:54 S 8 10.00 Overcast OVC034 64.9 57 76% 30.12 1019.9
02 03:54 S 5 10.00 Overcast BKN026 OVC043 64.9 59 81% 30.13 1020.0
02 02:54 Vrbl 5 10.00 Overcast FEW027 OVC043 64.9 60.1 84% 30.12 1019.8
02 01:54 S 5 10.00 Overcast OVC044 64.9 60.1 68 64 84% 30.12 1019.6
Date Time (edt) Wind (mph) Vis. (mi.) Weather Sky Cond. Air Dwpt Max. Min. Relative Humidity Wind Chill (°F) Heat Index (°F) altimeter (in) sea level (mb) 1 hr 3 hr 6 hr
6 hour
Temperature (ºF) Pressure Precipitation (in)